sensor_id;sensor_type;location;lat;lon;timestamp;pressure;altitude;pressure_sealevel;temperature;humidity
7335;BME280;3708;42.632;23.378;2023-02-26T00:01:26;93169.72;;;17.34;33.34
7335;BME280;3708;42.632;23.378;2023-02-26T00:03:55;93168.47;;;17.64;33.01
7335;BME280;3708;42.632;23.378;2023-02-26T00:06:23;93167.22;;;17.75;32.74
7335;BME280;3708;42.632;23.378;2023-02-26T00:08:51;93171.94;;;17.50;32.99
7335;BME280;3708;42.632;23.378;2023-02-26T00:11:19;93154.69;;;17.10;33.87
7335;BME280;3708;42.632;23.378;2023-02-26T00:13:47;93155.69;;;17.44;33.47
7335;BME280;3708;42.632;23.378;2023-02-26T00:16:22;93164.84;;;17.29;33.60
7335;BME280;3708;42.632;23.378;2023-02-26T00:18:51;93156.97;;;17.15;33.71
7335;BME280;3708;42.632;23.378;2023-02-26T00:21:20;93142.88;;;17.36;33.51
7335;BME280;3708;42.632;23.378;2023-02-26T00:23:47;93146.19;;;17.47;33.32
7335;BME280;3708;42.632;23.378;2023-02-26T00:26:16;93141.97;;;17.64;32.98
7335;BME280;3708;42.632;23.378;2023-02-26T00:28:43;93146.03;;;17.75;32.92
7335;BME280;3708;42.632;23.378;2023-02-26T00:31:12;93138.97;;;17.58;33.22
7335;BME280;3708;42.632;23.378;2023-02-26T00:33:40;93144.31;;;17.47;33.28
7335;BME280;3708;42.632;23.378;2023-02-26T00:36:19;93138.81;;;17.21;33.74
7335;BME280;3708;42.632;23.378;2023-02-26T00:38:56;93129.88;;;17.63;33.00
7335;BME280;3708;42.632;23.378;2023-02-26T00:41:29;93125.38;;;17.49;33.09
7335;BME280;3708;42.632;23.378;2023-02-26T00:43:56;93125.81;;;17.51;33.15
7335;BME280;3708;42.632;23.378;2023-02-26T00:46:28;93122.75;;;17.52;33.25
7335;BME280;3708;42.632;23.378;2023-02-26T00:49:04;93112.16;;;17.49;33.21
7335;BME280;3708;42.632;23.378;2023-02-26T00:51:42;93103.91;;;17.36;32.91
7335;BME280;3708;42.632;23.378;2023-02-26T00:54:17;93119.81;;;17.33;32.96
7335;BME280;3708;42.632;23.378;2023-02-26T00:56:47;93102.81;;;17.30;33.19
7335;BME280;3708;42.632;23.378;2023-02-26T00:59:14;93118.91;;;17.61;32.64
7335;BME280;3708;42.632;23.378;2023-02-26T01:01:41;93115.22;;;17.51;32.80
7335;BME280;3708;42.632;23.378;2023-02-26T01:04:09;93109.44;;;17.63;32.67
7335;BME280;3708;42.632;23.378;2023-02-26T01:06:39;93112.28;;;17.31;33.08
7335;BME280;3708;42.632;23.378;2023-02-26T01:09:14;93099.19;;;17.03;33.54
7335;BME280;3708;42.632;23.378;2023-02-26T01:11:42;93089.66;;;17.20;32.95
7335;BME280;3708;42.632;23.378;2023-02-26T01:14:10;93089.19;;;17.35;32.87
7335;BME280;3708;42.632;23.378;2023-02-26T01:16:43;93097.84;;;17.39;32.43
7335;BME280;3708;42.632;23.378;2023-02-26T01:19:23;93093.47;;;17.15;32.93
7335;BME280;3708;42.632;23.378;2023-02-26T01:22:01;93090.50;;;17.03;33.22
7335;BME280;3708;42.632;23.378;2023-02-26T01:24:30;93083.66;;;17.09;32.96
7335;BME280;3708;42.632;23.378;2023-02-26T01:26:57;93077.50;;;17.26;32.86
7335;BME280;3708;42.632;23.378;2023-02-26T01:29:25;93078.47;;;16.91;33.01
7335;BME280;3708;42.632;23.378;2023-02-26T01:31:57;93074.34;;;16.83;33.16
7335;BME280;3708;42.632;23.378;2023-02-26T01:34:34;93069.41;;;16.92;33.13
7335;BME280;3708;42.632;23.378;2023-02-26T01:37:09;93063.06;;;16.72;33.38
7335;BME280;3708;42.632;23.378;2023-02-26T01:39:44;93050.44;;;17.08;32.92
7335;BME280;3708;42.632;23.378;2023-02-26T01:42:15;93068.56;;;17.09;32.58
7335;BME280;3708;42.632;23.378;2023-02-26T01:44:54;93048.56;;;17.01;32.42
7335;BME280;3708;42.632;23.378;2023-02-26T01:47:28;93036.84;;;17.02;32.56
7335;BME280;3708;42.632;23.378;2023-02-26T01:49:57;93029.63;;;17.10;32.35
7335;BME280;3708;42.632;23.378;2023-02-26T01:55:28;93025.03;;;17.21;31.68
7335;BME280;3708;42.632;23.378;2023-02-26T01:57:57;93028.91;;;17.06;31.72
7335;BME280;3708;42.632;23.378;2023-02-26T02:00:27;93029.41;;;17.41;31.51
7335;BME280;3708;42.632;23.378;2023-02-26T02:02:55;93037.28;;;17.52;31.18
7335;BME280;3708;42.632;23.378;2023-02-26T02:05:26;93034.25;;;17.53;31.09
7335;BME280;3708;42.632;23.378;2023-02-26T02:07:54;93040.53;;;17.15;31.13
7335;BME280;3708;42.632;23.378;2023-02-26T02:10:22;93011.19;;;16.06;31.11
7335;BME280;3708;42.632;23.378;2023-02-26T02:12:54;93004.63;;;16.52;30.62
7335;BME280;3708;42.632;23.378;2023-02-26T02:15:31;93014.44;;;17.17;30.52
7335;BME280;3708;42.632;23.378;2023-02-26T02:18:10;93014.03;;;17.19;30.61
7335;BME280;3708;42.632;23.378;2023-02-26T02:20:56;93019.38;;;17.15;29.87
7335;BME280;3708;42.632;23.378;2023-02-26T02:23:31;93031.28;;;17.41;29.78
7335;BME280;3708;42.632;23.378;2023-02-26T02:29:26;93011.56;;;17.52;29.40
7335;BME280;3708;42.632;23.378;2023-02-26T02:31:58;93013.84;;;17.50;28.93
7335;BME280;3708;42.632;23.378;2023-02-26T02:34:30;93043.66;;;17.03;29.28
7335;BME280;3708;42.632;23.378;2023-02-26T02:37:02;93032.16;;;17.24;29.46
7335;BME280;3708;42.632;23.378;2023-02-26T02:39:33;93014.66;;;17.40;29.30
7335;BME280;3708;42.632;23.378;2023-02-26T02:42:06;93022.13;;;17.49;29.48
7335;BME280;3708;42.632;23.378;2023-02-26T02:44:38;93037.91;;;17.67;29.17
7335;BME280;3708;42.632;23.378;2023-02-26T02:47:10;93042.03;;;17.71;28.98
7335;BME280;3708;42.632;23.378;2023-02-26T02:49:43;93026.56;;;17.70;29.14
7335;BME280;3708;42.632;23.378;2023-02-26T02:52:16;93056.88;;;17.62;29.17
7335;BME280;3708;42.632;23.378;2023-02-26T02:54:48;93054.59;;;17.64;28.92
7335;BME280;3708;42.632;23.378;2023-02-26T02:57:20;93038.97;;;17.21;29.30
7335;BME280;3708;42.632;23.378;2023-02-26T02:59:50;93047.78;;;17.63;28.99
7335;BME280;3708;42.632;23.378;2023-02-26T03:02:25;93033.94;;;17.44;29.11
7335;BME280;3708;42.632;23.378;2023-02-26T03:04:55;93031.28;;;17.44;28.89
7335;BME280;3708;42.632;23.378;2023-02-26T03:07:22;93031.50;;;17.09;29.66
7335;BME280;3708;42.632;23.378;2023-02-26T03:09:49;93027.63;;;17.24;29.10
7335;BME280;3708;42.632;23.378;2023-02-26T03:12:16;93022.91;;;17.49;28.89
7335;BME280;3708;42.632;23.378;2023-02-26T03:14:43;93035.28;;;17.08;29.46
7335;BME280;3708;42.632;23.378;2023-02-26T03:17:23;93052.72;;;17.06;29.09
7335;BME280;3708;42.632;23.378;2023-02-26T03:20:02;93045.06;;;17.18;29.25
7335;BME280;3708;42.632;23.378;2023-02-26T03:22:35;93010.78;;;16.97;29.17
7335;BME280;3708;42.632;23.378;2023-02-26T03:25:07;93012.28;;;17.02;29.23
7335;BME280;3708;42.632;23.378;2023-02-26T03:27:39;93003.38;;;17.33;28.76
7335;BME280;3708;42.632;23.378;2023-02-26T03:30:13;93017.44;;;17.23;28.73
7335;BME280;3708;42.632;23.378;2023-02-26T03:32:50;93006.22;;;17.56;28.43
7335;BME280;3708;42.632;23.378;2023-02-26T03:35:23;93024.34;;;17.61;28.60
7335;BME280;3708;42.632;23.378;2023-02-26T03:37:55;93034.59;;;17.56;28.43
7335;BME280;3708;42.632;23.378;2023-02-26T03:40:26;93024.19;;;17.79;28.53
7335;BME280;3708;42.632;23.378;2023-02-26T03:43:00;93022.47;;;17.62;28.44
7335;BME280;3708;42.632;23.378;2023-02-26T03:45:30;93004.75;;;17.48;28.73
7335;BME280;3708;42.632;23.378;2023-02-26T03:48:02;93025.31;;;17.33;28.75
7335;BME280;3708;42.632;23.378;2023-02-26T03:50:33;93025.59;;;17.42;28.27
7335;BME280;3708;42.632;23.378;2023-02-26T03:53:02;93024.50;;;17.36;28.44
7335;BME280;3708;42.632;23.378;2023-02-26T03:55:35;93033.59;;;17.35;28.83
7335;BME280;3708;42.632;23.378;2023-02-26T03:58:05;93016.88;;;17.52;28.55
7335;BME280;3708;42.632;23.378;2023-02-26T04:00:32;93010.88;;;17.41;28.62
7335;BME280;3708;42.632;23.378;2023-02-26T04:03:08;93026.44;;;17.32;28.73
7335;BME280;3708;42.632;23.378;2023-02-26T04:05:40;93012.34;;;17.42;28.42
7335;BME280;3708;42.632;23.378;2023-02-26T04:08:10;93010.16;;;17.34;28.33
7335;BME280;3708;42.632;23.378;2023-02-26T04:10:41;92997.56;;;16.97;28.89
7335;BME280;3708;42.632;23.378;2023-02-26T04:13:09;93009.50;;;17.23;28.48
7335;BME280;3708;42.632;23.378;2023-02-26T04:15:36;93006.47;;;17.24;28.68
7335;BME280;3708;42.632;23.378;2023-02-26T04:18:05;92993.72;;;17.09;28.78
7335;BME280;3708;42.632;23.378;2023-02-26T04:20:33;92998.34;;;17.45;28.32
7335;BME280;3708;42.632;23.378;2023-02-26T04:23:00;92989.38;;;17.36;28.10
7335;BME280;3708;42.632;23.378;2023-02-26T04:25:27;92980.59;;;17.46;28.22
7335;BME280;3708;42.632;23.378;2023-02-26T04:27:55;92978.22;;;17.59;27.78
7335;BME280;3708;42.632;23.378;2023-02-26T04:30:22;92963.78;;;17.67;27.76
7335;BME280;3708;42.632;23.378;2023-02-26T04:32:49;92966.28;;;16.85;28.73
7335;BME280;3708;42.632;23.378;2023-02-26T04:35:17;92958.88;;;17.17;28.29
7335;BME280;3708;42.632;23.378;2023-02-26T04:37:43;92955.59;;;17.47;28.03
7335;BME280;3708;42.632;23.378;2023-02-26T04:40:11;92962.53;;;17.34;28.23
7335;BME280;3708;42.632;23.378;2023-02-26T04:42:38;92960.25;;;17.36;28.28
7335;BME280;3708;42.632;23.378;2023-02-26T04:45:05;92968.44;;;17.52;28.19
7335;BME280;3708;42.632;23.378;2023-02-26T04:47:33;92968.09;;;17.46;28.10
7335;BME280;3708;42.632;23.378;2023-02-26T04:50:00;92960.78;;;17.17;28.46
7335;BME280;3708;42.632;23.378;2023-02-26T04:52:28;92944.63;;;17.04;28.71
7335;BME280;3708;42.632;23.378;2023-02-26T04:54:55;92957.06;;;16.45;29.21
7335;BME280;3708;42.632;23.378;2023-02-26T04:57:22;92962.88;;;16.88;28.63
7335;BME280;3708;42.632;23.378;2023-02-26T04:59:49;92961.88;;;17.23;28.51
7335;BME280;3708;42.632;23.378;2023-02-26T05:02:16;92951.25;;;17.26;28.26
7335;BME280;3708;42.632;23.378;2023-02-26T05:04:43;92946.25;;;16.88;28.74
7335;BME280;3708;42.632;23.378;2023-02-26T05:07:10;92965.56;;;16.81;28.78
7335;BME280;3708;42.632;23.378;2023-02-26T05:09:38;92932.09;;;17.12;28.42
7335;BME280;3708;42.632;23.378;2023-02-26T05:12:05;92916.31;;;17.01;28.31
7335;BME280;3708;42.632;23.378;2023-02-26T05:14:32;92918.84;;;17.15;28.33
7335;BME280;3708;42.632;23.378;2023-02-26T05:16:59;92935.25;;;16.96;28.32
7335;BME280;3708;42.632;23.378;2023-02-26T05:19:25;92949.13;;;16.52;28.79
7335;BME280;3708;42.632;23.378;2023-02-26T05:21:52;92925.06;;;16.91;28.32
7335;BME280;3708;42.632;23.378;2023-02-26T05:24:19;92960.88;;;17.03;28.20
7335;BME280;3708;42.632;23.378;2023-02-26T05:26:47;92927.84;;;17.21;27.95
7335;BME280;3708;42.632;23.378;2023-02-26T05:29:14;92955.91;;;17.08;28.10
7335;BME280;3708;42.632;23.378;2023-02-26T05:31:41;92948.59;;;17.26;27.64
7335;BME280;3708;42.632;23.378;2023-02-26T05:34:08;92952.88;;;17.61;27.22
7335;BME280;3708;42.632;23.378;2023-02-26T05:36:35;92957.91;;;17.86;27.04
7335;BME280;3708;42.632;23.378;2023-02-26T05:39:02;92934.53;;;17.77;nan
7335;BME280;3708;42.632;23.378;2023-02-26T05:41:29;92926.75;;;17.63;27.27
7335;BME280;3708;42.632;23.378;2023-02-26T05:43:57;92924.19;;;17.08;27.99
7335;BME280;3708;42.632;23.378;2023-02-26T05:46:24;92915.13;;;17.09;27.94
7335;BME280;3708;42.632;23.378;2023-02-26T05:48:51;92913.44;;;16.78;28.22
7335;BME280;3708;42.632;23.378;2023-02-26T05:51:17;92920.81;;;17.08;27.64
7335;BME280;3708;42.632;23.378;2023-02-26T05:53:44;92930.84;;;17.27;27.89
7335;BME280;3708;42.632;23.378;2023-02-26T05:56:11;92930.72;;;17.41;27.70
7335;BME280;3708;42.632;23.378;2023-02-26T05:58:38;92941.44;;;17.27;27.92
7335;BME280;3708;42.632;23.378;2023-02-26T06:01:06;92945.78;;;17.51;27.15
7335;BME280;3708;42.632;23.378;2023-02-26T06:03:33;92928.75;;;17.48;27.02
7335;BME280;3708;42.632;23.378;2023-02-26T06:05:59;92961.00;;;17.36;27.69
7335;BME280;3708;42.632;23.378;2023-02-26T06:08:26;92943.75;;;17.62;27.34
7335;BME280;3708;42.632;23.378;2023-02-26T06:10:53;92961.34;;;17.83;26.88
7335;BME280;3708;42.632;23.378;2023-02-26T06:13:20;92953.53;;;17.69;26.56
7335;BME280;3708;42.632;23.378;2023-02-26T06:15:48;92967.19;;;18.01;26.23
7335;BME280;3708;42.632;23.378;2023-02-26T06:18:18;92955.06;;;18.03;26.50
7335;BME280;3708;42.632;23.378;2023-02-26T06:20:44;92937.78;;;18.25;26.22
7335;BME280;3708;42.632;23.378;2023-02-26T06:23:11;92951.06;;;17.92;26.47
7335;BME280;3708;42.632;23.378;2023-02-26T06:25:39;92959.31;;;17.97;26.64
7335;BME280;3708;42.632;23.378;2023-02-26T06:28:06;92909.38;;;18.26;26.39
7335;BME280;3708;42.632;23.378;2023-02-26T06:30:33;92949.34;;;18.39;26.24
7335;BME280;3708;42.632;23.378;2023-02-26T06:33:00;92955.91;;;18.31;26.36
7335;BME280;3708;42.632;23.378;2023-02-26T06:35:28;92931.28;;;18.00;26.33
7335;BME280;3708;42.632;23.378;2023-02-26T06:37:55;92972.78;;;17.73;26.61
7335;BME280;3708;42.632;23.378;2023-02-26T06:40:22;92968.19;;;17.36;26.98
7335;BME280;3708;42.632;23.378;2023-02-26T06:42:49;92970.25;;;17.62;26.67
7335;BME280;3708;42.632;23.378;2023-02-26T06:45:16;92950.25;;;17.95;26.42
7335;BME280;3708;42.632;23.378;2023-02-26T06:47:43;92942.22;;;17.68;26.41
7335;BME280;3708;42.632;23.378;2023-02-26T06:50:10;92963.69;;;17.33;26.40
7335;BME280;3708;42.632;23.378;2023-02-26T06:52:39;92968.06;;;17.91;26.06
7335;BME280;3708;42.632;23.378;2023-02-26T06:55:07;92951.44;;;18.24;25.37
7335;BME280;3708;42.632;23.378;2023-02-26T06:57:34;92956.47;;;18.11;25.51
7335;BME280;3708;42.632;23.378;2023-02-26T07:00:01;92935.72;;;17.73;26.00
7335;BME280;3708;42.632;23.378;2023-02-26T07:02:28;92941.63;;;18.21;25.82
7335;BME280;3708;42.632;23.378;2023-02-26T07:04:55;92903.63;;;18.01;25.61
7335;BME280;3708;42.632;23.378;2023-02-26T07:07:26;92892.59;;;18.36;25.56
7335;BME280;3708;42.632;23.378;2023-02-26T07:09:55;92888.91;;;18.26;25.62
7335;BME280;3708;42.632;23.378;2023-02-26T07:12:22;92874.00;;;18.09;25.72
7335;BME280;3708;42.632;23.378;2023-02-26T07:14:48;92860.44;;;18.04;25.70
7335;BME280;3708;42.632;23.378;2023-02-26T07:17:15;92871.41;;;18.06;25.74
7335;BME280;3708;42.632;23.378;2023-02-26T07:19:45;92892.44;;;18.20;25.51
7335;BME280;3708;42.632;23.378;2023-02-26T07:22:12;92889.28;;;18.28;25.25
7335;BME280;3708;42.632;23.378;2023-02-26T07:24:39;92896.38;;;18.65;25.26
7335;BME280;3708;42.632;23.378;2023-02-26T07:27:08;92892.31;;;18.84;24.70
7335;BME280;3708;42.632;23.378;2023-02-26T07:29:35;92885.31;;;18.93;24.55
7335;BME280;3708;42.632;23.378;2023-02-26T07:32:03;92922.91;;;18.65;24.81
7335;BME280;3708;42.632;23.378;2023-02-26T07:34:30;92897.63;;;19.07;24.27
7335;BME280;3708;42.632;23.378;2023-02-26T07:36:57;92911.66;;;19.31;24.15
7335;BME280;3708;42.632;23.378;2023-02-26T07:39:24;92918.03;;;19.60;23.90
7335;BME280;3708;42.632;23.378;2023-02-26T07:41:51;92918.75;;;19.14;24.24
7335;BME280;3708;42.632;23.378;2023-02-26T07:44:20;92924.34;;;19.66;23.33
7335;BME280;3708;42.632;23.378;2023-02-26T07:46:47;93040.81;;;18.87;23.61
7335;BME280;3708;42.632;23.378;2023-02-26T07:49:14;92917.06;;;19.24;23.50
7335;BME280;3708;42.632;23.378;2023-02-26T07:51:41;92918.03;;;19.60;23.25
7335;BME280;3708;42.632;23.378;2023-02-26T07:54:10;92884.88;;;19.22;23.44
7335;BME280;3708;42.632;23.378;2023-02-26T07:56:38;92907.56;;;20.12;22.79
7335;BME280;3708;42.632;23.378;2023-02-26T07:59:06;92922.53;;;20.02;22.83
7335;BME280;3708;42.632;23.378;2023-02-26T08:01:34;92911.38;;;20.11;22.85
7335;BME280;3708;42.632;23.378;2023-02-26T08:04:02;92896.63;;;19.67;22.51
7335;BME280;3708;42.632;23.378;2023-02-26T08:06:29;92903.25;;;19.78;22.82
7335;BME280;3708;42.632;23.378;2023-02-26T08:08:56;92915.66;;;20.44;22.17
7335;BME280;3708;42.632;23.378;2023-02-26T08:11:23;92912.03;;;19.75;22.47
7335;BME280;3708;42.632;23.378;2023-02-26T08:13:50;92919.81;;;19.86;22.32
7335;BME280;3708;42.632;23.378;2023-02-26T08:16:16;92929.69;;;19.43;22.83
7335;BME280;3708;42.632;23.378;2023-02-26T08:18:45;92913.50;;;19.34;22.94
7335;BME280;3708;42.632;23.378;2023-02-26T08:21:12;92953.19;;;19.87;22.67
7335;BME280;3708;42.632;23.378;2023-02-26T08:23:39;92920.22;;;20.04;22.47
7335;BME280;3708;42.632;23.378;2023-02-26T08:26:07;92975.13;;;20.34;22.34
7335;BME280;3708;42.632;23.378;2023-02-26T08:28:34;92959.00;;;19.36;23.07
7335;BME280;3708;42.632;23.378;2023-02-26T08:31:01;92929.72;;;19.62;22.70
7335;BME280;3708;42.632;23.378;2023-02-26T08:33:29;92931.28;;;20.42;22.37
7335;BME280;3708;42.632;23.378;2023-02-26T08:35:57;92932.84;;;20.20;21.89
7335;BME280;3708;42.632;23.378;2023-02-26T08:38:26;92951.22;;;20.11;22.03
7335;BME280;3708;42.632;23.378;2023-02-26T08:40:54;92941.22;;;20.18;22.18
7335;BME280;3708;42.632;23.378;2023-02-26T08:43:21;92964.38;;;19.98;22.06
7335;BME280;3708;42.632;23.378;2023-02-26T08:45:51;92947.69;;;19.55;22.54
7335;BME280;3708;42.632;23.378;2023-02-26T08:48:18;92971.38;;;20.31;21.85
7335;BME280;3708;42.632;23.378;2023-02-26T08:50:45;92949.00;;;20.09;21.93
7335;BME280;3708;42.632;23.378;2023-02-26T08:53:14;92959.63;;;20.09;22.03
7335;BME280;3708;42.632;23.378;2023-02-26T08:55:41;92962.00;;;20.63;21.54
7335;BME280;3708;42.632;23.378;2023-02-26T08:58:09;92963.31;;;20.90;21.14
7335;BME280;3708;42.632;23.378;2023-02-26T09:00:36;92959.53;;;21.23;21.03
7335;BME280;3708;42.632;23.378;2023-02-26T09:03:03;92989.34;;;21.51;20.54
7335;BME280;3708;42.632;23.378;2023-02-26T09:05:30;92971.00;;;21.53;20.77
7335;BME280;3708;42.632;23.378;2023-02-26T09:07:58;92957.88;;;22.07;20.15
7335;BME280;3708;42.632;23.378;2023-02-26T09:10:26;92955.34;;;21.71;20.29
7335;BME280;3708;42.632;23.378;2023-02-26T09:12:55;92976.06;;;22.24;20.04
7335;BME280;3708;42.632;23.378;2023-02-26T09:15:28;92971.09;;;21.65;20.28
7335;BME280;3708;42.632;23.378;2023-02-26T09:18:20;92934.38;;;21.57;20.14
7335;BME280;3708;42.632;23.378;2023-02-26T09:20:49;92967.94;;;21.06;20.79
7335;BME280;3708;42.632;23.378;2023-02-26T09:23:16;92974.78;;;21.23;20.68
7335;BME280;3708;42.632;23.378;2023-02-26T09:25:44;92980.94;;;21.84;20.15
7335;BME280;3708;42.632;23.378;2023-02-26T09:28:11;92975.78;;;21.13;20.11
7335;BME280;3708;42.632;23.378;2023-02-26T09:30:38;92963.09;;;21.65;19.89
7335;BME280;3708;42.632;23.378;2023-02-26T09:33:05;92957.53;;;21.76;19.80
7335;BME280;3708;42.632;23.378;2023-02-26T09:35:32;92960.53;;;22.35;19.65
7335;BME280;3708;42.632;23.378;2023-02-26T09:37:58;93028.19;;;22.13;18.98
7335;BME280;3708;42.632;23.378;2023-02-26T09:40:35;92999.72;;;21.61;19.52
7335;BME280;3708;42.632;23.378;2023-02-26T09:43:18;92974.00;;;21.55;19.81
7335;BME280;3708;42.632;23.378;2023-02-26T09:45:51;92977.41;;;21.07;20.20
7335;BME280;3708;42.632;23.378;2023-02-26T09:48:21;92965.84;;;21.13;19.88
7335;BME280;3708;42.632;23.378;2023-02-26T09:50:51;92970.94;;;21.08;19.79
7335;BME280;3708;42.632;23.378;2023-02-26T09:53:21;92971.41;;;21.03;19.95
7335;BME280;3708;42.632;23.378;2023-02-26T09:55:51;92964.88;;;20.88;20.38
7335;BME280;3708;42.632;23.378;2023-02-26T09:58:25;92997.06;;;21.13;19.91
7335;BME280;3708;42.632;23.378;2023-02-26T10:00:59;92986.81;;;20.76;20.14
7335;BME280;3708;42.632;23.378;2023-02-26T10:03:35;92964.78;;;20.75;20.25
7335;BME280;3708;42.632;23.378;2023-02-26T10:06:20;92943.28;;;21.50;19.52
7335;BME280;3708;42.632;23.378;2023-02-26T10:09:03;92943.25;;;21.21;20.16
7335;BME280;3708;42.632;23.378;2023-02-26T10:11:37;92942.78;;;21.55;19.92
7335;BME280;3708;42.632;23.378;2023-02-26T10:14:15;92897.84;;;21.57;19.94
7335;BME280;3708;42.632;23.378;2023-02-26T10:16:48;92951.03;;;21.61;19.92
7335;BME280;3708;42.632;23.378;2023-02-26T10:19:20;92958.47;;;21.21;20.50
7335;BME280;3708;42.632;23.378;2023-02-26T10:21:51;92973.63;;;21.24;20.22
7335;BME280;3708;42.632;23.378;2023-02-26T10:24:23;93075.50;;;20.49;20.91
7335;BME280;3708;42.632;23.378;2023-02-26T10:26:54;92964.00;;;20.59;21.14
7335;BME280;3708;42.632;23.378;2023-02-26T10:29:27;92960.16;;;20.60;21.11
7335;BME280;3708;42.632;23.378;2023-02-26T10:32:06;92905.03;;;20.60;21.11
7335;BME280;3708;42.632;23.378;2023-02-26T10:34:42;92934.88;;;20.32;21.53
7335;BME280;3708;42.632;23.378;2023-02-26T10:37:17;92867.41;;;20.26;21.39
7335;BME280;3708;42.632;23.378;2023-02-26T10:39:58;92893.50;;;20.50;21.42
7335;BME280;3708;42.632;23.378;2023-02-26T10:42:43;92897.75;;;20.28;21.69
7335;BME280;3708;42.632;23.378;2023-02-26T10:45:25;92906.72;;;20.34;21.65
7335;BME280;3708;42.632;23.378;2023-02-26T10:48:03;92900.31;;;20.12;21.31
7335;BME280;3708;42.632;23.378;2023-02-26T10:50:32;92912.50;;;20.49;21.35
7335;BME280;3708;42.632;23.378;2023-02-26T10:53:01;92903.94;;;20.58;21.11
7335;BME280;3708;42.632;23.378;2023-02-26T10:55:36;92985.91;;;20.46;21.21
7335;BME280;3708;42.632;23.378;2023-02-26T10:58:06;92913.03;;;20.60;21.33
7335;BME280;3708;42.632;23.378;2023-02-26T11:00:38;92909.25;;;20.93;21.45
7335;BME280;3708;42.632;23.378;2023-02-26T11:03:09;92892.34;;;20.68;21.87
7335;BME280;3708;42.632;23.378;2023-02-26T11:05:38;92901.34;;;20.90;21.93
7335;BME280;3708;42.632;23.378;2023-02-26T11:08:11;92897.69;;;20.84;22.09
7335;BME280;3708;42.632;23.378;2023-02-26T11:10:43;92880.97;;;20.99;21.71
7335;BME280;3708;42.632;23.378;2023-02-26T11:13:12;92895.03;;;21.00;21.63
7335;BME280;3708;42.632;23.378;2023-02-26T11:15:41;92889.22;;;21.05;21.43
7335;BME280;3708;42.632;23.378;2023-02-26T11:18:13;92889.06;;;21.12;21.23
7335;BME280;3708;42.632;23.378;2023-02-26T11:20:44;92900.16;;;21.55;20.88
7335;BME280;3708;42.632;23.378;2023-02-26T11:23:13;92869.56;;;20.99;21.19
7335;BME280;3708;42.632;23.378;2023-02-26T11:25:44;92881.78;;;20.64;21.63
7335;BME280;3708;42.632;23.378;2023-02-26T11:28:21;92918.97;;;20.68;21.58
7335;BME280;3708;42.632;23.378;2023-02-26T11:30:51;92901.59;;;20.95;21.30
7335;BME280;3708;42.632;23.378;2023-02-26T11:33:23;92917.84;;;21.17;21.01
7335;BME280;3708;42.632;23.378;2023-02-26T11:35:59;92901.56;;;20.63;21.71
7335;BME280;3708;42.632;23.378;2023-02-26T11:38:27;92913.59;;;20.12;22.12
7335;BME280;3708;42.632;23.378;2023-02-26T11:41:00;92894.94;;;19.76;22.52
7335;BME280;3708;42.632;23.378;2023-02-26T11:43:34;92962.44;;;20.41;22.13
7335;BME280;3708;42.632;23.378;2023-02-26T11:46:04;92945.75;;;20.21;22.32
7335;BME280;3708;42.632;23.378;2023-02-26T11:48:38;92920.47;;;20.85;21.62
7335;BME280;3708;42.632;23.378;2023-02-26T11:51:07;92937.22;;;21.50;21.42
7335;BME280;3708;42.632;23.378;2023-02-26T11:53:36;92964.22;;;21.80;20.95
7335;BME280;3708;42.632;23.378;2023-02-26T11:56:10;92981.59;;;21.40;21.22
7335;BME280;3708;42.632;23.378;2023-02-26T11:58:40;92974.94;;;21.48;21.22
7335;BME280;3708;42.632;23.378;2023-02-26T12:01:12;92974.94;;;21.48;21.86
7335;BME280;3708;42.632;23.378;2023-02-26T12:03:43;93017.63;;;20.37;23.12
7335;BME280;3708;42.632;23.378;2023-02-26T12:06:16;92950.56;;;20.46;22.94
7335;BME280;3708;42.632;23.378;2023-02-26T12:08:44;93025.81;;;20.46;22.88
7335;BME280;3708;42.632;23.378;2023-02-26T12:11:23;92952.13;;;20.04;22.74
7335;BME280;3708;42.632;23.378;2023-02-26T12:14:07;92932.44;;;20.93;22.24
7335;BME280;3708;42.632;23.378;2023-02-26T12:16:48;92949.88;;;21.13;22.19
7335;BME280;3708;42.632;23.378;2023-02-26T12:19:31;92956.13;;;20.71;22.34
7335;BME280;3708;42.632;23.378;2023-02-26T12:22:14;92952.91;;;21.15;22.29
7335;BME280;3708;42.632;23.378;2023-02-26T12:24:58;92956.38;;;21.61;22.15
7335;BME280;3708;42.632;23.378;2023-02-26T12:27:41;92979.88;;;20.98;22.69
7335;BME280;3708;42.632;23.378;2023-02-26T12:30:24;93003.81;;;21.17;22.23
7335;BME280;3708;42.632;23.378;2023-02-26T12:33:11;92985.75;;;21.73;21.77
7335;BME280;3708;42.632;23.378;2023-02-26T12:35:46;92998.50;;;21.50;22.28
7335;BME280;3708;42.632;23.378;2023-02-26T12:38:25;93001.44;;;22.16;21.80
7335;BME280;3708;42.632;23.378;2023-02-26T12:41:21;92979.03;;;22.42;21.53
7335;BME280;3708;42.632;23.378;2023-02-26T12:43:51;93002.78;;;22.65;21.28
7335;BME280;3708;42.632;23.378;2023-02-26T12:46:38;93028.47;;;22.31;21.55
7335;BME280;3708;42.632;23.378;2023-02-26T12:49:37;93026.53;;;22.19;21.36
7335;BME280;3708;42.632;23.378;2023-02-26T12:52:22;93013.16;;;22.76;20.79
7335;BME280;3708;42.632;23.378;2023-02-26T12:55:04;93015.47;;;23.15;20.54
7335;BME280;3708;42.632;23.378;2023-02-26T12:58:01;93029.03;;;23.71;20.57
7335;BME280;3708;42.632;23.378;2023-02-26T13:00:45;93031.72;;;23.71;20.58
7335;BME280;3708;42.632;23.378;2023-02-26T13:03:31;93015.78;;;22.92;21.40
7335;BME280;3708;42.632;23.378;2023-02-26T13:06:24;93013.91;;;22.64;22.26
7335;BME280;3708;42.632;23.378;2023-02-26T13:09:01;93031.94;;;22.44;22.57
7335;BME280;3708;42.632;23.378;2023-02-26T13:11:42;93014.72;;;21.55;23.17
7335;BME280;3708;42.632;23.378;2023-02-26T13:14:20;93025.72;;;21.57;22.29
7335;BME280;3708;42.632;23.378;2023-02-26T13:16:58;93028.28;;;22.09;21.85
7335;BME280;3708;42.632;23.378;2023-02-26T13:19:31;93014.78;;;22.45;21.88
7335;BME280;3708;42.632;23.378;2023-02-26T13:22:13;93008.25;;;22.46;21.79
7335;BME280;3708;42.632;23.378;2023-02-26T13:24:44;93006.31;;;21.73;22.90
7335;BME280;3708;42.632;23.378;2023-02-26T13:27:14;93018.19;;;22.17;22.96
7335;BME280;3708;42.632;23.378;2023-02-26T13:29:45;93001.78;;;22.02;21.75
7335;BME280;3708;42.632;23.378;2023-02-26T13:32:16;93002.94;;;22.46;21.86
7335;BME280;3708;42.632;23.378;2023-02-26T13:34:49;93006.81;;;23.11;21.41
7335;BME280;3708;42.632;23.378;2023-02-26T13:37:23;92999.56;;;23.24;21.14